Terminal Aerodrome Forecast
Issued by NWS

Home | Current Version | Previous Version | Text Only | Print | Product List | Glossary On
Versions: 1 2 3 4 5 6 7 8 9 10 11 12 13 14 15
000
FTAK31 PAJN 271100
TAFAJN
TAF
PAJN 271140Z 2712/2812 07005KT P6SM -SHRA FEW015 BKN035 OVC050
      TEMPO 2712/2716 5SM -SHRA BR FEW005 OVC030
     FM271800 10010KT P6SM -SHRA OVC040
     FM280300 VRB06KT 5SM BCFG VCSH OVC020=

USA.gov is the U.S. government's official web portal to all federal, state and local government web resources and services.